Time;durP1;ratioP1;P1;durP2;ratioP2;P2;SDS_P1;SDS_P2;PMS_P1;PMS_P2;Temp;Humidity;BMP_temperature;BMP_pressure;BME280_temperature;BME280_humidity;BME280_pressure;Samples;Min_cycle;Max_cycle;Signal;HPM_P1;HPM_P2
2022/01/04 00:01:49;;;;;;;22.50;7.13;;;;;;;5.20;100.00;98921.22;5093574;22;20659;-81
2022/01/04 00:04:16;;;;;;;25.33;7.60;;;;;;;5.15;100.00;98925.25;5116881;22;20290;-76
2022/01/04 00:06:45;;;;;;;25.50;7.30;;;;;;;5.11;100.00;98924.72;5122364;22;20205;-78
2022/01/04 00:09:12;;;;;;;24.77;8.20;;;;;;;5.14;100.00;98923.59;5117459;22;20229;-76
2022/01/04 00:11:47;;;;;;;18.80;7.17;;;;;;;5.15;100.00;98927.88;5110309;22;20214;-78
2022/01/04 00:14:13;;;;;;;24.43;8.17;;;;;;;5.06;100.00;98927.81;5111656;22;20362;-79
2022/01/04 00:16:40;;;;;;;23.70;8.60;;;;;;;5.10;100.00;98916.97;5096319;22;22107;-79
2022/01/04 00:19:07;;;;;;;23.13;7.97;;;;;;;5.11;100.00;98913.38;5112989;22;20198;-81
2022/01/04 00:21:34;;;;;;;23.23;8.47;;;;;;;5.08;100.00;98907.41;5094553;22;20639;-77
2022/01/04 00:24:01;;;;;;;22.57;8.10;;;;;;;5.09;100.00;98910.88;5096874;22;20209;-76
2022/01/04 00:26:28;;;;;;;21.57;8.07;;;;;;;5.06;100.00;98916.44;5117006;22;21396;-80
2022/01/04 00:28:54;;;;;;;24.30;8.20;;;;;;;5.06;100.00;98917.25;5108167;22;20292;-77
2022/01/04 00:31:21;;;;;;;24.53;8.57;;;;;;;5.04;100.00;98921.84;5134281;22;21060;-78
2022/01/04 00:33:48;;;;;;;27.43;8.50;;;;;;;5.00;100.00;98912.56;5121777;22;20623;-76
2022/01/04 00:36:15;;;;;;;24.03;8.10;;;;;;;5.06;100.00;98914.63;5122371;22;20248;-78
2022/01/04 00:38:41;;;;;;;26.90;8.37;;;;;;;4.99;100.00;98910.91;5105115;22;21254;-76
2022/01/04 00:41:08;;;;;;;26.33;7.90;;;;;;;5.10;100.00;98911.69;5120253;22;25546;-79
2022/01/04 00:43:34;;;;;;;21.83;7.40;;;;;;;5.02;100.00;98915.06;5101531;22;20198;-78
2022/01/04 00:46:01;;;;;;;24.63;8.07;;;;;;;5.07;100.00;98915.44;5098474;22;21621;-79
2022/01/04 00:50:55;;;;;;;22.90;7.90;;;;;;;5.07;100.00;98903.09;5118325;22;20209;-80
2022/01/04 00:53:22;;;;;;;24.40;7.70;;;;;;;5.00;100.00;98894.13;5101928;22;21686;-78
2022/01/04 00:55:48;;;;;;;23.33;7.70;;;;;;;5.01;100.00;98892.31;5118298;22;21535;-79
2022/01/04 00:58:15;;;;;;;24.77;7.20;;;;;;;5.02;100.00;98889.53;5117817;22;20409;-80
2022/01/04 01:00:41;;;;;;;26.63;7.90;;;;;;;4.99;100.00;98884.56;5119452;22;20634;-78
2022/01/04 01:03:08;;;;;;;19.57;6.77;;;;;;;5.02;100.00;98880.81;5109733;22;20650;-77
2022/01/04 01:05:35;;;;;;;21.57;7.17;;;;;;;4.95;100.00;98883.19;5124518;22;25321;-78
2022/01/04 01:08:03;;;;;;;25.70;6.77;;;;;;;5.00;100.00;98883.56;5119123;22;22625;-77
2022/01/04 01:11:05;;;;;;;17.80;6.03;;;;;;;4.99;100.00;98874.03;5097540;22;20614;-79
2022/01/04 01:13:22;;;;;;;14.33;5.70;;;;;;;5.10;100.00;98880.88;5143722;22;21761;-82
2022/01/04 01:15:49;;;;;;;17.13;5.67;;;;;;;5.10;100.00;98880.06;5097506;22;20198;-78
2022/01/04 01:18:17;;;;;;;22.23;5.60;;;;;;;5.01;100.00;98872.06;5103445;22;25601;-77
2022/01/04 01:20:46;;;;;;;15.43;5.20;;;;;;;5.11;100.00;98872.00;5101820;22;20202;-77
2022/01/04 01:23:13;;;;;;;22.20;6.33;;;;;;;5.07;100.00;98868.81;5146248;22;20206;-77
2022/01/04 01:25:39;;;;;;;14.40;4.87;;;;;;;5.00;100.00;98865.13;5168628;22;20213;-82
2022/01/04 01:28:06;;;;;;;19.53;5.40;;;;;;;5.00;100.00;98859.84;5124809;22;23129;-78
2022/01/04 01:30:36;;;;;;;16.20;5.60;;;;;;;5.04;100.00;98865.66;5102627;22;20256;-78
2022/01/04 01:33:03;;;;;;;16.93;5.67;;;;;;;5.08;100.00;98852.03;5123949;22;20209;-75
2022/01/04 01:35:30;;;;;;;14.03;5.33;;;;;;;5.11;100.00;98850.09;5124522;22;20202;-82
2022/01/04 01:37:58;;;;;;;21.93;6.53;;;;;;;5.10;100.00;98859.78;5131850;22;20209;-75
2022/01/04 01:40:25;;;;;;;19.83;5.87;;;;;;;5.11;100.00;98850.09;5136431;22;20217;-82
2022/01/04 01:42:51;;;;;;;18.07;5.53;;;;;;;5.10;100.00;98861.59;5139009;22;20208;-76
2022/01/04 01:45:18;;;;;;;21.97;6.10;;;;;;;5.05;100.00;98849.69;5140696;22;20688;-75
2022/01/04 01:47:44;;;;;;;18.57;5.43;;;;;;;5.06;100.00;98838.16;5141970;22;21995;-77
2022/01/04 01:50:12;;;;;;;18.63;5.70;;;;;;;4.96;100.00;98847.94;5132403;22;20206;-75
2022/01/04 01:52:39;;;;;;;17.73;6.20;;;;;;;5.02;100.00;98847.34;5120666;22;20312;-79
2022/01/04 01:55:07;;;;;;;20.57;6.60;;;;;;;5.03;100.00;98846.38;5137554;22;20202;-77
2022/01/04 01:57:34;;;;;;;26.17;6.67;;;;;;;4.93;100.00;98850.06;5132163;22;20276;-81
2022/01/04 02:00:00;;;;;;;21.60;6.70;;;;;;;4.96;100.00;98849.75;5119585;22;20472;-76
2022/01/04 02:02:27;;;;;;;19.27;6.30;;;;;;;4.94;100.00;98844.63;5137296;22;21164;-77
2022/01/04 02:04:54;;;;;;;21.07;7.07;;;;;;;4.91;100.00;98842.28;5114294;22;22072;-81
2022/01/04 02:07:22;;;;;;;17.83;6.30;;;;;;;4.85;100.00;98842.88;5147214;22;20210;-76
2022/01/04 02:10:01;;;;;;;18.77;6.50;;;;;;;4.91;100.00;98838.81;5132490;22;20221;-78
2022/01/04 02:12:28;;;;;;;24.27;6.40;;;;;;;5.04;100.00;98847.22;5135630;22;21772;-78
2022/01/04 02:14:55;;;;;;;17.63;6.10;;;;;;;5.03;100.00;98849.03;5131815;22;20415;-79
2022/01/04 02:17:21;;;;;;;17.63;7.07;;;;;;;5.07;100.00;98844.28;5107969;22;20197;-82
2022/01/04 02:19:48;;;;;;;21.50;7.23;;;;;;;5.14;100.00;98844.50;5125883;22;20264;-76
2022/01/04 02:22:14;;;;;;;17.60;7.07;;;;;;;5.12;100.00;98841.19;5136026;22;22804;-81
2022/01/04 02:24:41;;;;;;;20.33;8.33;;;;;;;5.19;100.00;98836.97;5140264;22;20268;-74
2022/01/04 02:27:07;;;;;;;27.20;7.67;;;;;;;5.15;100.00;98830.31;5161531;22;20260;-83
2022/01/04 02:29:34;;;;;;;18.57;7.30;;;;;;;5.15;100.00;98835.59;5133710;22;20210;-76
2022/01/04 02:32:01;;;;;;;23.87;7.13;;;;;;;5.10;100.00;98832.59;5152005;22;22625;-78
2022/01/04 02:34:28;;;;;;;20.93;7.33;;;;;;;5.13;100.00;98827.88;5130973;22;20198;-75
2022/01/04 02:36:54;;;;;;;20.60;7.20;;;;;;;5.16;100.00;98829.38;5117520;22;23161;-76
2022/01/04 02:39:21;;;;;;;21.87;6.63;;;;;;;5.15;100.00;98831.19;5102389;22;20213;-77
2022/01/04 02:41:47;;;;;;;16.87;6.57;;;;;;;5.12;100.00;98820.09;5119940;22;22698;-76
2022/01/04 02:44:14;;;;;;;17.60;6.50;;;;;;;5.08;100.00;98830.13;5131593;22;20198;-76
2022/01/04 02:46:41;;;;;;;18.40;5.80;;;;;;;5.14;100.00;98826.03;5105234;22;20267;-80
2022/01/04 02:49:07;;;;;;;19.83;5.77;;;;;;;5.11;100.00;98821.91;5121365;22;21594;-83
2022/01/04 02:51:34;;;;;;;21.17;6.23;;;;;;;5.14;100.00;98818.13;5106622;22;21645;-76
2022/01/04 02:54:01;;;;;;;18.77;5.87;;;;;;;5.11;100.00;98813.16;5115505;22;21737;-79
2022/01/04 02:56:27;;;;;;;18.77;6.37;;;;;;;5.06;100.00;98811.81;5104011;22;25114;-78
2022/01/04 02:58:56;;;;;;;22.07;6.17;;;;;;;5.01;100.00;98802.66;5122806;22;20211;-74
2022/01/04 03:01:22;;;;;;;23.23;6.53;;;;;;;4.95;100.00;98801.47;5138625;22;20430;-78
2022/01/04 03:03:49;;;;;;;19.77;6.53;;;;;;;4.90;100.00;98797.66;5106583;22;20309;-76
2022/01/04 03:06:16;;;;;;;17.70;5.40;;;;;;;4.90;100.00;98795.81;5131277;22;20642;-78
2022/01/04 03:08:42;;;;;;;24.17;6.30;;;;;;;4.94;100.00;98802.47;5141800;22;20213;-78
2022/01/04 03:11:09;;;;;;;23.23;6.50;;;;;;;4.98;100.00;98795.91;5124495;22;21124;-77
2022/01/04 03:13:36;;;;;;;21.27;6.73;;;;;;;4.89;100.00;98786.25;5128297;22;20369;-78
2022/01/04 03:16:02;;;;;;;17.47;6.30;;;;;;;4.90;100.00;98785.28;5120362;22;20206;-76
2022/01/04 03:18:29;;;;;;;24.00;6.73;;;;;;;4.82;100.00;98785.19;5130485;22;20433;-77
2022/01/04 03:20:56;;;;;;;16.50;6.27;;;;;;;4.81;100.00;98780.91;5104152;22;21497;-81
2022/01/04 03:23:22;;;;;;;19.33;6.47;;;;;;;4.80;100.00;98774.81;5119363;22;20298;-76
2022/01/04 03:25:49;;;;;;;18.87;6.13;;;;;;;4.82;100.00;98778.13;5096511;22;21583;-79
2022/01/04 03:28:19;;;;;;;18.33;7.60;;;;;;;4.77;100.00;98784.81;5133620;22;22806;-77
2022/01/04 03:30:46;;;;;;;15.37;6.77;;;;;;;4.70;100.00;98778.47;5081050;22;20240;-75
2022/01/04 03:33:13;;;;;;;16.37;6.97;;;;;;;4.78;100.00;98774.13;5123868;22;20201;-78
2022/01/04 03:35:40;;;;;;;16.00;5.93;;;;;;;4.75;100.00;98773.59;5133103;22;22040;-75
2022/01/04 03:38:07;;;;;;;16.40;6.43;;;;;;;4.88;100.00;98770.59;5138981;22;20384;-84
2022/01/04 03:40:33;;;;;;;18.63;6.70;;;;;;;4.81;100.00;98767.72;5128027;22;23237;-79
2022/01/04 03:43:00;;;;;;;18.53;5.73;;;;;;;4.82;100.00;98764.09;5137858;22;20197;-78
2022/01/04 03:45:26;;;;;;;22.10;6.10;;;;;;;4.76;100.00;98762.09;5114678;22;20530;-75
2022/01/04 03:47:53;;;;;;;17.60;5.80;;;;;;;4.84;100.00;98759.50;5130013;22;20213;-82
2022/01/04 03:50:19;;;;;;;13.87;5.23;;;;;;;4.82;100.00;98766.75;5122688;22;20221;-77
2022/01/04 03:52:46;;;;;;;13.03;5.00;;;;;;;4.91;100.00;98763.22;5115739;22;20206;-78
2022/01/04 03:55:12;;;;;;;15.87;5.43;;;;;;;4.82;100.00;98761.47;5109410;22;21712;-84
2022/01/04 03:57:39;;;;;;;16.80;5.60;;;;;;;4.92;100.00;98762.25;5125125;22;21215;-79
2022/01/04 04:00:07;;;;;;;21.57;5.47;;;;;;;4.85;100.00;98750.66;5125150;22;20217;-74
2022/01/04 04:02:34;;;;;;;14.17;4.83;;;;;;;4.92;100.00;98756.16;5098320;22;20267;-77
2022/01/04 04:05:01;;;;;;;12.80;5.10;;;;;;;4.87;99.88;98748.69;5100381;22;20371;-79
2022/01/04 04:07:32;;;;;;;14.30;5.13;;;;;;;4.79;99.72;98745.97;5124806;22;20204;-81
2022/01/04 04:09:58;;;;;;;13.50;4.80;;;;;;;4.65;100.00;98745.50;5118053;22;20202;-78
2022/01/04 04:12:25;;;;;;;14.80;4.90;;;;;;;4.65;100.00;98740.22;5136848;22;20697;-82
2022/01/04 04:14:52;;;;;;;15.43;5.40;;;;;;;4.63;100.00;98741.34;5136945;22;20206;-75
2022/01/04 04:17:18;;;;;;;17.63;5.13;;;;;;;4.45;100.00;98738.72;5133791;22;20264;-84
2022/01/04 04:19:45;;;;;;;13.00;4.53;;;;;;;4.49;100.00;98736.59;5131249;22;20206;-78
2022/01/04 04:22:11;;;;;;;14.87;4.27;;;;;;;4.57;100.00;98742.78;5131295;22;20655;-86
2022/01/04 04:24:38;;;;;;;15.00;5.37;;;;;;;4.57;100.00;98737.53;5137150;22;21629;-77
2022/01/04 04:27:05;;;;;;;14.80;5.07;;;;;;;4.62;99.87;98740.53;5136426;22;20202;-77
2022/01/04 04:29:33;;;;;;;18.37;5.80;;;;;;;4.61;99.58;98738.88;5113891;22;21601;-81
2022/01/04 04:32:00;;;;;;;16.90;5.60;;;;;;;4.59;99.90;98738.22;5122578;22;20206;-74
2022/01/04 04:34:26;;;;;;;15.23;4.47;;;;;;;4.54;100.00;98742.25;5131697;22;20208;-78
2022/01/04 04:36:53;;;;;;;17.33;5.37;;;;;;;4.61;99.89;98738.88;5134235;22;20246;-87
2022/01/04 04:39:19;;;;;;;16.63;5.33;;;;;;;4.60;99.67;98742.47;5132232;22;20219;-79
2022/01/04 04:41:46;;;;;;;16.93;5.93;;;;;;;4.59;100.00;98740.03;5105821;22;25360;-77
2022/01/04 04:44:12;;;;;;;15.77;5.53;;;;;;;4.63;100.00;98742.19;5115976;22;25074;-80
2022/01/04 04:46:39;;;;;;;13.63;5.70;;;;;;;4.69;99.62;98734.69;5110139;22;20788;-80
2022/01/04 04:49:06;;;;;;;16.63;5.57;;;;;;;4.76;99.55;98735.75;5102345;22;22881;-76
2022/01/04 04:51:33;;;;;;;16.27;5.90;;;;;;;4.71;99.33;98730.09;5113857;22;20209;-84
2022/01/04 04:53:59;;;;;;;19.27;6.60;;;;;;;4.67;100.00;98718.19;5135613;22;21235;-77
2022/01/04 04:56:26;;;;;;;17.07;6.47;;;;;;;4.72;100.00;98723.84;5123371;22;20205;-76
2022/01/04 04:58:53;;;;;;;18.00;6.10;;;;;;;4.72;100.00;98729.91;5118134;22;20205;-84
2022/01/04 05:01:19;;;;;;;12.10;5.87;;;;;;;4.77;100.00;98726.84;5131944;22;20194;-79
2022/01/04 05:03:46;;;;;;;17.00;6.47;;;;;;;4.77;100.00;98725.03;5127811;22;20221;-77
2022/01/04 05:06:13;;;;;;;16.20;6.17;;;;;;;4.78;100.00;98723.25;5133003;22;23052;-76
2022/01/04 05:08:39;;;;;;;16.90;5.80;;;;;;;4.81;100.00;98722.94;5135102;22;22877;-78
2022/01/04 05:11:06;;;;;;;17.93;6.47;;;;;;;4.85;100.00;98719.03;5130078;22;20232;-80
2022/01/04 05:13:33;;;;;;;18.30;6.77;;;;;;;4.86;100.00;98716.22;5122085;22;20206;-76
2022/01/04 05:15:59;;;;;;;16.10;5.93;;;;;;;4.96;100.00;98710.03;5134098;22;20264;-80
2022/01/04 05:18:26;;;;;;;19.07;6.07;;;;;;;4.99;100.00;98715.84;5151035;22;21727;-78
2022/01/04 05:20:53;;;;;;;17.30;6.17;;;;;;;4.95;100.00;98717.13;5154929;22;20278;-78
2022/01/04 05:23:19;;;;;;;17.13;6.47;;;;;;;5.00;100.00;98717.50;5121909;22;21530;-83
2022/01/04 05:25:46;;;;;;;24.03;6.77;;;;;;;4.97;100.00;98720.44;5129677;22;20959;-80
2022/01/04 05:28:12;;;;;;;17.30;5.63;;;;;;;5.04;100.00;98721.50;5122703;22;20209;-74
2022/01/04 05:30:39;;;;;;;19.93;5.23;;;;;;;5.08;100.00;98720.22;5123801;22;21274;-76
2022/01/04 05:33:05;;;;;;;15.40;5.70;;;;;;;5.10;100.00;98719.22;5128692;22;21428;-79
2022/01/04 05:35:32;;;;;;;15.40;5.77;;;;;;;5.02;100.00;98709.44;5119643;22;20360;-79
2022/01/04 05:37:58;;;;;;;14.67;6.17;;;;;;;5.02;100.00;98706.81;5098654;22;20816;-80
2022/01/04 05:40:25;;;;;;;14.87;6.20;;;;;;;5.06;100.00;98702.91;5120999;22;20206;-75
2022/01/04 05:42:52;;;;;;;27.90;7.43;;;;;;;5.07;100.00;98705.34;5110595;22;20425;-77
2022/01/04 05:45:18;;;;;;;15.63;5.60;;;;;;;5.11;100.00;98699.81;5124196;22;21150;-80
2022/01/04 05:47:45;;;;;;;13.40;5.40;;;;;;;5.01;100.00;98703.34;5103149;22;20198;-77
2022/01/04 05:50:13;;;;;;;17.70;5.50;;;;;;;5.00;100.00;98691.13;5104130;22;21715;-77
2022/01/04 05:52:40;;;;;;;15.57;5.67;;;;;;;5.15;100.00;98693.22;5123999;22;20254;-81
2022/01/04 05:55:07;;;;;;;19.67;5.53;;;;;;;5.10;100.00;98692.84;5107149;22;20268;-83
2022/01/04 05:57:34;;;;;;;19.63;6.47;;;;;;;5.08;100.00;98688.59;5130700;22;22109;-77
2022/01/04 06:00:02;;;;;;;16.57;6.07;;;;;;;5.08;100.00;98696.50;5099361;22;21737;-82
2022/01/04 06:02:29;;;;;;;17.50;6.30;;;;;;;5.04;100.00;98692.50;5142162;22;20228;-79
2022/01/04 06:04:56;;;;;;;18.37;6.87;;;;;;;5.06;100.00;98687.09;5157811;22;20202;-77
2022/01/04 06:07:22;;;;;;;18.13;6.83;;;;;;;5.04;100.00;98676.69;5127475;22;20202;-80
2022/01/04 06:09:52;;;;;;;19.87;6.60;;;;;;;5.01;100.00;98671.72;5118126;23;20206;-81
2022/01/04 06:14:59;;;;;;;18.63;7.80;;;;;;;4.96;100.00;98668.69;5129099;22;20198;-77
2022/01/04 06:17:33;;;;;;;18.87;8.50;;;;;;;4.89;100.00;98678.19;5126497;22;20308;-82
2022/01/04 06:20:01;;;;;;;20.27;8.80;;;;;;;4.96;100.00;98681.88;5144617;22;20723;-78
2022/01/04 06:22:28;;;;;;;16.20;8.47;;;;;;;4.91;100.00;98684.13;5135526;22;21196;-78
2022/01/04 06:24:55;;;;;;;19.43;8.20;;;;;;;4.85;100.00;98687.41;5137945;22;21100;-79
2022/01/04 06:27:22;;;;;;;20.77;7.40;;;;;;;4.91;100.00;98676.22;5142831;22;20198;-79
2022/01/04 06:29:49;;;;;;;21.80;8.10;;;;;;;4.90;100.00;98685.13;5126778;22;20264;-79
2022/01/04 06:32:16;;;;;;;19.90;8.30;;;;;;;4.96;100.00;98683.69;5120287;22;21556;-80
2022/01/04 06:34:43;;;;;;;19.13;7.57;;;;;;;4.94;100.00;98670.69;5281286;22;20204;-78
2022/01/04 06:37:11;;;;;;;17.57;7.37;;;;;;;4.99;100.00;98681.59;5120320;22;22131;-76
2022/01/04 06:39:38;;;;;;;17.20;8.17;;;;;;;4.93;100.00;98663.72;5126273;22;20627;-78
2022/01/04 06:42:05;;;;;;;23.27;10.83;;;;;;;4.92;100.00;98666.53;5151549;22;20372;-78
2022/01/04 06:44:33;;;;;;;20.27;7.37;;;;;;;4.82;100.00;98666.59;5166695;22;20202;-80
2022/01/04 06:46:59;;;;;;;15.43;7.40;;;;;;;4.89;100.00;98672.09;5149586;22;20284;-77
2022/01/04 06:49:26;;;;;;;17.83;7.77;;;;;;;4.85;100.00;98668.94;5155846;22;20665;-86
2022/01/04 06:51:52;;;;;;;20.43;7.67;;;;;;;4.86;100.00;98683.78;5205328;22;20391;-84
2022/01/04 06:54:20;;;;;;;18.67;8.10;;;;;;;4.85;100.00;98679.50;5123173;22;20268;-79
2022/01/04 06:56:48;;;;;;;19.67;8.07;;;;;;;4.89;100.00;98678.19;5214702;22;20209;-76
2022/01/04 06:59:16;;;;;;;16.63;7.73;;;;;;;4.88;100.00;98678.34;5245956;22;20388;-81
2022/01/04 07:01:45;;;;;;;15.63;7.63;;;;;;;4.90;100.00;98671.13;5207117;22;20213;-76
2022/01/04 07:04:12;;;;;;;19.57;7.90;;;;;;;4.93;100.00;98671.63;5117712;22;25569;-78
2022/01/04 07:06:39;;;;;;;15.37;7.70;;;;;;;4.95;100.00;98658.31;5148977;22;20255;-82
2022/01/04 07:09:09;;;;;;;16.63;7.93;;;;;;;4.96;100.00;98671.31;5344533;22;24631;-76
2022/01/04 07:11:37;;;;;;;18.40;8.17;;;;;;;4.95;100.00;98661.78;5192857;22;20507;-81
2022/01/04 07:14:04;;;;;;;15.93;7.77;;;;;;;4.90;100.00;98653.50;5213364;22;21160;-83
2022/01/04 07:16:33;;;;;;;16.30;7.97;;;;;;;4.95;100.00;98656.50;5213572;23;21866;-78
2022/01/04 07:19:00;;;;;;;20.73;8.67;;;;;;;4.98;100.00;98656.19;5165647;22;20205;-76
2022/01/04 07:21:27;;;;;;;19.07;8.83;;;;;;;4.98;100.00;98648.28;5215555;22;20435;-76
2022/01/04 07:23:59;;;;;;;21.63;8.00;;;;;;;5.00;100.00;98650.78;5127323;22;20202;-77
2022/01/04 07:26:25;;;;;;;20.23;8.30;;;;;;;4.96;100.00;98652.06;5122445;22;20978;-78
2022/01/04 07:28:52;;;;;;;17.67;8.93;;;;;;;4.97;100.00;98653.72;5145006;22;20209;-81
2022/01/04 07:31:19;;;;;;;21.93;9.00;;;;;;;5.01;100.00;98650.63;5132243;22;20327;-82
2022/01/04 07:33:46;;;;;;;22.77;9.60;;;;;;;5.00;100.00;98648.97;5118616;22;21278;-77
2022/01/04 07:36:13;;;;;;;17.37;8.70;;;;;;;4.96;100.00;98647.59;5137252;22;20198;-79
2022/01/04 07:38:40;;;;;;;21.30;9.30;;;;;;;5.01;100.00;98650.63;5120709;22;20416;-75
2022/01/04 07:41:07;;;;;;;21.57;9.03;;;;;;;4.96;100.00;98642.34;5111906;22;20866;-80
2022/01/04 07:43:34;;;;;;;24.87;9.70;;;;;;;4.94;100.00;98640.84;5081588;22;25458;-77
2022/01/04 07:46:01;;;;;;;18.80;9.30;;;;;;;4.97;100.00;98641.38;5084250;22;20198;-80
2022/01/04 07:48:28;;;;;;;26.07;10.03;;;;;;;4.94;100.00;98633.78;5123377;22;20922;-75
2022/01/04 07:50:55;;;;;;;19.90;9.97;;;;;;;4.98;100.00;98629.84;5109559;22;20202;-74
2022/01/04 07:53:27;;;;;;;24.27;10.47;;;;;;;5.00;100.00;98633.16;5143434;22;22376;-78
2022/01/04 07:55:54;;;;;;;22.50;9.90;;;;;;;5.05;100.00;98636.13;5149526;22;20721;-86
2022/01/04 07:58:22;;;;;;;23.27;10.13;;;;;;;5.14;100.00;98636.22;5136018;22;22240;-81
2022/01/04 08:00:49;;;;;;;21.60;10.47;;;;;;;5.15;100.00;98616.75;5145617;22;21654;-82
2022/01/04 08:03:16;;;;;;;18.87;9.63;;;;;;;5.20;100.00;98627.69;5100791;22;20209;-80
2022/01/04 08:05:43;;;;;;;17.23;9.60;;;;;;;5.26;100.00;98619.13;5126642;22;23538;-80
2022/01/04 08:08:09;;;;;;;22.33;9.73;;;;;;;5.25;100.00;98614.88;5112748;22;20766;-80
2022/01/04 08:10:36;;;;;;;22.47;9.93;;;;;;;5.23;100.00;98622.91;5129056;22;20209;-77
2022/01/04 08:13:03;;;;;;;23.33;10.03;;;;;;;5.27;100.00;98618.19;5125289;22;20205;-79
2022/01/04 08:15:30;;;;;;;19.23;9.37;;;;;;;5.26;100.00;98611.22;5112426;22;20209;-80
2022/01/04 08:17:58;;;;;;;19.13;9.40;;;;;;;5.34;100.00;98597.25;5128092;22;20238;-77
2022/01/04 08:20:24;;;;;;;20.10;10.27;;;;;;;5.50;100.00;98602.59;5136889;22;20476;-81
2022/01/04 08:22:51;;;;;;;21.47;10.10;;;;;;;5.62;100.00;98579.41;5142199;22;20256;-86
2022/01/04 08:25:18;;;;;;;21.00;9.77;;;;;;;5.65;100.00;98584.38;5173643;22;20204;-79
2022/01/04 08:27:45;;;;;;;21.27;10.00;;;;;;;5.76;100.00;98573.56;5116135;22;20216;-80
2022/01/04 08:30:12;;;;;;;21.07;8.83;;;;;;;5.89;100.00;98571.25;5147654;22;20198;-79
2022/01/04 08:32:39;;;;;;;24.43;9.70;;;;;;;5.95;100.00;98563.72;5106125;23;20784;-80
2022/01/04 08:35:07;;;;;;;14.77;8.60;;;;;;;5.96;100.00;98560.09;5131612;22;20624;-80
2022/01/04 08:37:34;;;;;;;19.20;8.30;;;;;;;5.90;100.00;98562.38;5102998;22;20203;-80
2022/01/04 08:40:01;;;;;;;17.90;8.37;;;;;;;5.93;100.00;98559.41;5118358;22;20202;-78
2022/01/04 08:42:28;;;;;;;18.43;8.93;;;;;;;5.87;99.93;98557.38;5122787;22;20254;-79
2022/01/04 08:44:55;;;;;;;15.70;8.57;;;;;;;5.95;100.00;98550.50;5111675;22;21990;-81
2022/01/04 08:47:23;;;;;;;18.60;7.87;;;;;;;5.97;100.00;98545.91;5098382;22;20200;-79
2022/01/04 08:49:50;;;;;;;16.03;8.37;;;;;;;5.99;99.81;98549.19;5104380;22;21427;-79
2022/01/04 08:52:17;;;;;;;21.13;8.43;;;;;;;6.05;99.27;98543.28;5107697;22;20610;-83
2022/01/04 08:54:44;;;;;;;16.73;8.37;;;;;;;6.01;99.34;98541.94;5119389;22;20203;-82
2022/01/04 08:57:10;;;;;;;21.10;8.73;;;;;;;5.97;100.00;98540.63;5090942;23;20381;-78
2022/01/04 08:59:37;;;;;;;17.13;8.23;;;;;;;6.01;100.00;98529.56;5128145;22;20206;-74
2022/01/04 09:02:04;;;;;;;22.73;8.63;;;;;;;6.09;99.70;98532.22;5101082;22;21569;-76
2022/01/04 09:04:31;;;;;;;17.63;7.93;;;;;;;6.08;98.94;98532.38;5106637;22;20372;-77
2022/01/04 09:07:00;;;;;;;23.40;9.20;;;;;;;6.11;98.95;98524.13;5147725;22;20265;-75
2022/01/04 09:09:27;;;;;;;19.80;8.67;;;;;;;6.13;98.97;98527.44;5114241;22;20489;-76
2022/01/04 09:12:14;;;;;;;16.83;8.10;;;;;;;6.14;99.02;98526.47;5134356;22;20214;-78
2022/01/04 09:14:54;;;;;;;17.70;8.40;;;;;;;6.01;98.86;98520.81;5106479;22;20214;-78
2022/01/04 09:20:09;;;;;;;15.47;7.93;;;;;;;6.05;98.95;98522.97;5142296;22;20208;-79
2022/01/04 09:22:36;;;;;;;14.20;7.93;;;;;;;6.03;98.60;98526.78;5106189;22;20694;-78
2022/01/04 09:25:04;;;;;;;18.33;8.07;;;;;;;6.07;98.64;98525.47;5121451;22;22093;-79
2022/01/04 09:27:32;;;;;;;15.90;7.50;;;;;;;6.01;99.16;98520.81;5131647;22;20252;-76
2022/01/04 09:30:03;;;;;;;16.87;7.63;;;;;;;6.02;99.06;98523.31;5163542;22;20262;-76
2022/01/04 09:32:32;;;;;;;16.67;7.77;;;;;;;6.21;98.72;98510.78;5128052;22;21695;-79
2022/01/04 09:35:00;;;;;;;17.90;8.00;;;;;;;6.25;98.43;98512.09;5114692;22;20273;-77
2022/01/04 09:37:27;;;;;;;15.73;7.63;;;;;;;6.38;97.64;98512.44;5146311;22;20520;-78
2022/01/04 09:39:53;;;;;;;15.10;7.90;;;;;;;6.52;97.53;98503.00;5128478;22;20210;-78
2022/01/04 09:42:20;;;;;;;16.87;7.53;;;;;;;6.46;96.39;98498.38;5131445;22;20959;-79
2022/01/04 09:44:48;;;;;;;19.10;8.30;;;;;;;6.46;96.58;98487.81;5117328;22;20606;-78
2022/01/04 09:47:14;;;;;;;14.40;7.60;;;;;;;6.48;96.90;98486.66;5111207;22;20213;-77
2022/01/04 09:49:41;;;;;;;13.10;7.43;;;;;;;6.51;96.88;98477.59;5253522;22;20213;-77
2022/01/04 09:52:09;;;;;;;19.33;8.00;;;;;;;6.55;96.93;98478.88;5111594;22;20210;-76
2022/01/04 09:54:37;;;;;;;13.17;7.17;;;;;;;6.51;96.55;98480.25;5111642;22;20216;-78
2022/01/04 09:57:04;;;;;;;15.57;7.37;;;;;;;6.51;96.15;98474.94;5141612;22;20218;-76
2022/01/04 09:59:31;;;;;;;17.60;7.50;;;;;;;6.47;96.16;98473.63;5123656;22;20530;-78
2022/01/04 10:02:11;;;;;;;14.00;7.37;;;;;;;6.53;96.45;98463.22;5118779;22;20202;-79
2022/01/04 10:04:38;;;;;;;16.73;7.93;;;;;;;6.44;96.97;98455.44;5145191;22;20215;-77
2022/01/04 10:07:07;;;;;;;18.80;8.10;;;;;;;6.42;97.06;98454.81;5092170;22;22396;-76
2022/01/04 10:09:38;;;;;;;14.80;7.43;;;;;;;6.54;96.95;98453.47;5134791;22;20203;-77
2022/01/04 10:12:06;;;;;;;18.93;9.03;;;;;;;6.51;96.90;98453.81;5148706;22;20205;-78
2022/01/04 10:14:38;;;;;;;14.87;7.47;;;;;;;6.56;96.29;98448.84;5102879;22;21198;-74
2022/01/04 10:17:14;;;;;;;15.87;7.47;;;;;;;6.46;96.76;98441.09;5108003;22;21834;-77
2022/01/04 10:19:46;;;;;;;13.37;7.50;;;;;;;6.47;96.53;98436.63;5135599;22;20316;-78
2022/01/04 10:22:27;;;;;;;19.23;7.53;;;;;;;6.41;97.36;98424.09;5125540;22;20613;-76
2022/01/04 10:25:03;;;;;;;16.70;7.97;;;;;;;6.45;97.16;98428.06;5097750;22;20493;-75
2022/01/04 10:27:41;;;;;;;13.37;7.17;;;;;;;6.45;97.46;98428.06;5107909;22;20208;-76
2022/01/04 10:30:17;;;;;;;16.00;7.80;;;;;;;6.43;98.13;98430.03;5118566;22;22330;-79
2022/01/04 10:32:51;;;;;;;19.37;8.43;;;;;;;6.42;98.30;98423.13;5099293;22;21557;-80
2022/01/04 10:35:45;;;;;;;16.37;8.30;;;;;;;6.27;99.18;98415.03;5084556;22;20266;-79
2022/01/04 10:38:16;;;;;;;16.43;8.03;;;;;;;6.32;99.16;98418.84;5148068;22;20213;-79
2022/01/04 10:40:53;;;;;;;18.63;8.27;;;;;;;6.32;99.78;98413.56;5069183;23;20276;-78
2022/01/04 10:43:23;;;;;;;13.33;6.93;;;;;;;6.34;99.46;98406.28;5049724;23;22216;-79
2022/01/04 10:45:51;;;;;;;16.30;7.27;;;;;;;6.36;99.53;98397.34;5076053;23;21316;-84
2022/01/04 10:48:29;;;;;;;17.00;8.17;;;;;;;6.40;100.00;98393.41;5136912;23;20435;-79
2022/01/04 10:51:07;;;;;;;15.00;7.13;;;;;;;6.51;100.00;98393.03;5057047;23;21607;-83
2022/01/04 10:53:48;;;;;;;16.30;7.57;;;;;;;6.52;99.82;98386.75;5107135;23;22064;-77
2022/01/04 10:56:17;;;;;;;14.73;7.57;;;;;;;6.54;99.87;98390.06;5076187;23;21171;-84
2022/01/04 10:58:47;;;;;;;15.00;7.40;;;;;;;6.61;99.59;98382.28;5059368;23;20426;-81
2022/01/04 11:01:16;;;;;;;14.97;7.37;;;;;;;6.67;99.90;98376.28;5074744;23;20211;-86
2022/01/04 11:04:03;;;;;;;13.27;6.93;;;;;;;6.66;99.72;98372.81;5114865;23;20277;-79
2022/01/04 11:06:37;;;;;;;18.03;8.37;;;;;;;6.69;99.98;98377.75;5071953;23;20275;-78
2022/01/04 11:09:05;;;;;;;15.77;7.77;;;;;;;6.57;100.00;98365.09;5050862;23;20629;-79
2022/01/04 11:11:34;;;;;;;17.53;8.57;;;;;;;6.52;100.00;98352.41;5094216;23;20210;-83
2022/01/04 11:14:01;;;;;;;20.43;8.53;;;;;;;6.43;100.00;98348.13;5097811;23;20216;-77
2022/01/04 11:16:29;;;;;;;20.53;8.87;;;;;;;6.38;100.00;98347.81;5092224;23;20204;-81
2022/01/04 11:18:58;;;;;;;20.77;9.53;;;;;;;6.33;100.00;98340.41;5054245;23;20303;-80
2022/01/04 11:21:28;;;;;;;16.53;9.50;;;;;;;6.43;100.00;98348.13;5085607;23;20210;-78
2022/01/04 11:23:55;;;;;;;17.30;9.20;;;;;;;6.43;100.00;98340.22;5104337;23;20259;-84
2022/01/04 11:26:22;;;;;;;15.90;8.97;;;;;;;6.37;100.00;98340.88;5087646;23;20207;-77
2022/01/04 11:28:50;;;;;;;17.73;9.10;;;;;;;6.20;100.00;98325.06;5092644;23;20208;-86
2022/01/04 11:31:45;;;;;;;17.97;9.83;;;;;;;6.12;100.00;98311.91;5078672;23;20274;-77
2022/01/04 11:34:15;;;;;;;17.50;9.93;;;;;;;6.07;100.00;98316.88;5081151;23;21165;-79
2022/01/04 11:36:46;;;;;;;19.20;10.27;;;;;;;6.02;100.00;98308.66;5092388;23;20238;-77
2022/01/04 11:39:45;;;;;;;26.43;10.67;;;;;;;6.03;100.00;98308.47;5104123;22;20209;-78